createdAt,value
2023-04-30T00:02:23.634Z,1.60
2023-04-30T00:04:50.353Z,1.47
2023-04-30T00:07:16.929Z,1.40
2023-04-30T00:09:43.506Z,1.40
2023-04-30T00:12:10.098Z,1.43
2023-04-30T00:14:36.697Z,1.37
2023-04-30T00:17:03.308Z,1.60
2023-04-30T00:19:29.844Z,1.70
2023-04-30T00:21:56.476Z,1.47
2023-04-30T00:24:23.098Z,1.60
2023-04-30T00:26:50.681Z,1.90
2023-04-30T00:29:17.248Z,1.60
2023-04-30T00:31:43.864Z,1.77
2023-04-30T00:34:10.511Z,1.50
2023-04-30T00:36:37.198Z,1.63
2023-04-30T00:39:03.987Z,1.73
2023-04-30T00:41:31.682Z,1.60
2023-04-30T00:43:58.251Z,1.57
2023-04-30T00:46:24.908Z,1.57
2023-04-30T00:48:51.520Z,1.67
2023-04-30T00:51:18.437Z,1.50
2023-04-30T00:53:45.054Z,1.60
2023-04-30T01:03:44.790Z,1.60
2023-04-30T01:06:11.474Z,1.77
2023-04-30T01:11:38.861Z,1.70
2023-04-30T01:14:21.738Z,1.80
2023-04-30T01:19:45.730Z,1.83
2023-04-30T01:22:25.064Z,1.67
2023-04-30T01:25:21.266Z,1.47
2023-04-30T01:27:55.612Z,1.67
2023-04-30T01:30:23.956Z,1.63
2023-04-30T01:32:50.587Z,1.60
2023-04-30T01:38:20.312Z,1.90
2023-04-30T01:40:59.090Z,1.70
2023-04-30T01:43:39.825Z,1.80
2023-04-30T01:46:24.038Z,2.10
2023-04-30T01:49:15.447Z,1.80
2023-04-30T01:51:47.894Z,1.50
2023-04-30T01:54:26.905Z,1.80
2023-04-30T01:57:05.775Z,1.63
2023-04-30T01:59:35.768Z,1.90
2023-04-30T02:02:03.241Z,1.83
2023-04-30T02:04:29.885Z,1.73
2023-04-30T02:06:56.520Z,1.97
2023-04-30T02:09:24.012Z,1.67
2023-04-30T02:11:51.101Z,2.20
2023-04-30T02:14:17.758Z,1.67
2023-04-30T02:16:44.367Z,1.70
2023-04-30T02:21:42.908Z,1.83
2023-04-30T02:29:12.381Z,1.67
2023-04-30T02:36:41.812Z,1.93
2023-04-30T02:41:40.596Z,1.40
2023-04-30T02:44:07.161Z,1.80
2023-04-30T02:46:33.679Z,2.00
2023-04-30T02:49:00.285Z,1.80
2023-04-30T02:51:26.901Z,1.53
2023-04-30T02:53:53.479Z,1.73
2023-04-30T02:56:20.045Z,1.80
2023-04-30T02:58:46.714Z,1.80
2023-04-30T03:01:14.049Z,1.73
2023-04-30T03:03:41.114Z,1.70
2023-04-30T03:06:07.691Z,2.10
2023-04-30T03:08:34.401Z,2.17
2023-04-30T03:11:01.380Z,1.73
2023-04-30T03:13:28.075Z,1.73
2023-04-30T03:16:02.302Z,2.07
2023-04-30T03:18:28.957Z,1.60
2023-04-30T03:20:55.643Z,1.57
2023-04-30T03:35:59.794Z,1.60
2023-04-30T03:38:26.412Z,2.13
2023-04-30T03:40:53.071Z,2.00
2023-04-30T03:43:19.720Z,2.10
2023-04-30T03:45:46.676Z,1.80
2023-04-30T03:48:13.563Z,1.93
2023-04-30T03:50:40.400Z,2.23
2023-04-30T03:53:07.014Z,1.73
2023-04-30T03:55:34.180Z,1.77
2023-04-30T03:58:00.939Z,1.60
2023-04-30T04:08:02.487Z,2.07
2023-04-30T04:10:29.198Z,2.10
2023-04-30T04:12:55.746Z,1.93
2023-04-30T04:15:22.427Z,2.33
2023-04-30T04:17:49.073Z,2.07
2023-04-30T04:20:15.869Z,1.83
2023-04-30T04:22:42.587Z,2.33
2023-04-30T04:25:09.796Z,1.83
2023-04-30T04:27:36.443Z,1.50
2023-04-30T04:30:03.899Z,1.93
2023-04-30T04:32:32.570Z,1.80
2023-04-30T04:34:59.252Z,2.10
2023-04-30T04:37:25.864Z,1.80
2023-04-30T04:39:52.683Z,2.40
2023-04-30T04:42:20.446Z,1.67
2023-04-30T04:44:47.074Z,1.60
2023-04-30T04:47:13.635Z,2.20
2023-04-30T04:49:40.216Z,2.40
2023-04-30T04:52:06.983Z,2.27
2023-04-30T04:54:34.041Z,2.43
2023-04-30T04:57:01.115Z,1.97
2023-04-30T04:59:27.657Z,1.93
2023-04-30T05:01:54.405Z,2.40
2023-04-30T05:04:21.217Z,1.73
2023-04-30T05:06:48.122Z,2.20
2023-04-30T05:09:14.776Z,2.23
2023-04-30T05:11:41.568Z,2.13
2023-04-30T05:14:08.260Z,1.90
2023-04-30T05:16:34.825Z,2.00
2023-04-30T05:19:01.436Z,2.33
2023-04-30T05:21:30.029Z,2.10
2023-04-30T05:23:56.567Z,2.00
2023-04-30T05:26:24.353Z,2.10
2023-04-30T05:28:52.233Z,1.97
2023-04-30T05:31:20.791Z,2.03
2023-04-30T05:33:47.773Z,2.00
2023-04-30T05:36:14.566Z,2.20
2023-04-30T05:43:44.917Z,2.00
2023-04-30T05:46:11.478Z,2.23
2023-04-30T05:48:39.029Z,2.17
2023-04-30T05:51:07.093Z,2.20
2023-04-30T05:53:33.732Z,2.07
2023-04-30T05:56:00.398Z,1.97
2023-04-30T05:58:26.989Z,2.40
2023-04-30T06:00:53.547Z,1.90
2023-04-30T06:03:20.504Z,2.10
2023-04-30T06:05:47.572Z,2.00
2023-04-30T06:08:14.231Z,1.97
2023-04-30T06:10:40.986Z,1.93
2023-04-30T06:13:07.651Z,2.37
2023-04-30T06:20:37.349Z,2.20
2023-04-30T06:28:09.271Z,2.20
2023-04-30T06:30:36.901Z,2.20
2023-04-30T06:40:38.350Z,2.50
2023-04-30T06:48:08.023Z,2.33
2023-04-30T06:50:34.639Z,2.37
2023-04-30T06:53:01.354Z,2.60
2023-04-30T06:55:28.077Z,2.33
2023-04-30T06:57:54.724Z,2.50
2023-04-30T07:00:21.308Z,1.90
2023-04-30T07:02:51.783Z,1.83
2023-04-30T07:05:18.868Z,2.20
2023-04-30T07:07:46.363Z,2.20
2023-04-30T07:10:13.424Z,2.40
2023-04-30T07:12:39.962Z,2.47
2023-04-30T07:15:07.092Z,1.77
2023-04-30T07:17:33.780Z,2.10
2023-04-30T07:20:00.447Z,2.17
2023-04-30T07:22:27.743Z,2.10
2023-04-30T07:24:55.102Z,2.40
2023-04-30T07:27:21.670Z,2.57
2023-04-30T07:29:48.460Z,2.20
2023-04-30T07:32:16.303Z,2.10
2023-04-30T07:34:43.182Z,2.20
2023-04-30T07:37:10.022Z,1.87
2023-04-30T07:39:39.620Z,2.23
2023-04-30T07:42:06.999Z,2.33
2023-04-30T07:44:33.600Z,2.83
2023-04-30T07:47:00.246Z,1.90
2023-04-30T07:49:26.828Z,2.07
2023-04-30T07:51:53.455Z,2.20
2023-04-30T07:54:19.979Z,2.20
2023-04-30T08:04:24.768Z,2.50
2023-04-30T08:06:51.705Z,2.63
2023-04-30T08:09:18.355Z,2.70
2023-04-30T08:11:44.922Z,2.90
2023-04-30T08:14:11.843Z,2.70
2023-04-30T08:16:38.467Z,3.10
2023-04-30T08:19:05.324Z,3.90
2023-04-30T08:21:32.217Z,3.70
2023-04-30T08:23:58.760Z,3.50
2023-04-30T08:28:57.750Z,2.90
2023-04-30T08:31:24.442Z,4.23
2023-04-30T08:33:51.184Z,3.37
2023-04-30T08:36:17.700Z,3.23
2023-04-30T08:38:44.373Z,3.63
2023-04-30T08:41:15.615Z,3.10
2023-04-30T08:43:45.017Z,3.20
2023-04-30T08:46:13.726Z,3.30
2023-04-30T08:48:41.480Z,3.67
2023-04-30T08:51:08.336Z,3.00
2023-04-30T08:56:11.341Z,2.30
2023-04-30T08:58:37.979Z,2.67
2023-04-30T09:01:07.680Z,3.03
2023-04-30T09:03:34.512Z,3.07
2023-04-30T09:06:01.142Z,3.13
2023-04-30T09:14:02.561Z,3.57
2023-04-30T09:19:24.198Z,3.23
2023-04-30T09:21:51.396Z,3.30
2023-04-30T09:24:18.814Z,2.50
2023-04-30T09:26:49.526Z,2.60
2023-04-30T09:29:16.113Z,2.80
2023-04-30T09:31:46.022Z,2.70
2023-04-30T09:36:55.087Z,3.00
2023-04-30T09:42:06.851Z,3.10
2023-04-30T09:44:37.825Z,2.77
2023-04-30T09:47:05.012Z,2.80
2023-04-30T09:49:32.039Z,2.67
2023-04-30T09:54:32.516Z,2.50
2023-04-30T09:57:01.479Z,2.63
2023-04-30T09:59:35.089Z,2.63
2023-04-30T10:02:05.135Z,2.83
2023-04-30T10:04:36.560Z,2.37
2023-04-30T10:07:22.131Z,2.53
2023-04-30T10:09:58.692Z,3.00
2023-04-30T10:15:13.241Z,2.70
2023-04-30T10:17:41.681Z,2.43
2023-04-30T10:20:10.452Z,2.53
2023-04-30T10:22:37.357Z,2.90
2023-04-30T10:25:04.224Z,3.00
2023-04-30T10:27:30.899Z,3.23
2023-04-30T10:29:59.409Z,2.40
2023-04-30T10:32:41.727Z,2.30
2023-04-30T10:35:24.198Z,2.40
2023-04-30T10:37:57.344Z,2.53
2023-04-30T10:40:26.943Z,2.17
2023-04-30T10:42:54.999Z,2.77
2023-04-30T10:45:38.078Z,2.47
2023-04-30T10:48:06.337Z,2.73
2023-04-30T10:50:33.238Z,2.70
2023-04-30T10:53:04.221Z,2.60
2023-04-30T11:01:17.675Z,2.20
2023-04-30T11:04:08.708Z,2.43
2023-04-30T11:09:39.983Z,2.17
2023-04-30T11:12:13.979Z,2.00
2023-04-30T11:14:45.394Z,2.00
2023-04-30T11:17:21.600Z,2.07
2023-04-30T11:19:52.949Z,2.23
2023-04-30T11:22:23.055Z,2.53
2023-04-30T11:24:54.069Z,2.30
2023-04-30T11:27:25.206Z,2.50
2023-04-30T11:29:53.057Z,2.23
2023-04-30T11:32:21.342Z,2.30
2023-04-30T11:34:49.005Z,2.30
2023-04-30T11:42:48.231Z,2.27
2023-04-30T11:45:23.298Z,2.13
2023-04-30T11:50:29.178Z,2.30
2023-04-30T11:55:30.341Z,2.20
2023-04-30T12:03:03.864Z,2.43
2023-04-30T12:13:13.988Z,2.17
2023-04-30T12:15:40.946Z,2.23
2023-04-30T12:18:15.402Z,2.33
2023-04-30T12:20:42.520Z,2.20
2023-04-30T12:23:09.472Z,2.20
2023-04-30T12:25:45.693Z,2.10
2023-04-30T12:28:12.363Z,2.50
2023-04-30T12:30:38.936Z,2.00
2023-04-30T12:33:06.082Z,2.00
2023-04-30T12:35:32.707Z,2.13
2023-04-30T12:38:05.145Z,2.57
2023-04-30T12:40:32.355Z,2.33
2023-04-30T12:43:07.159Z,2.93
2023-04-30T12:48:26.127Z,1.90
2023-04-30T12:56:09.959Z,2.20
2023-04-30T12:58:38.612Z,2.33
2023-04-30T13:01:10.323Z,2.00
2023-04-30T13:03:37.260Z,2.10
2023-04-30T13:06:05.021Z,2.43
2023-04-30T13:08:33.887Z,2.57
2023-04-30T13:26:16.364Z,1.90
2023-04-30T13:28:43.337Z,2.20
2023-04-30T13:31:09.976Z,2.30
2023-04-30T13:33:36.554Z,1.93
2023-04-30T13:36:04.300Z,2.20
2023-04-30T13:43:34.331Z,1.90
2023-04-30T13:46:01.779Z,1.90
2023-04-30T13:48:28.392Z,1.77
2023-04-30T13:50:55.236Z,2.37
2023-04-30T13:53:22.514Z,1.97
2023-04-30T13:55:49.145Z,2.13
2023-04-30T13:58:15.917Z,2.10
2023-04-30T14:00:42.790Z,1.90
2023-04-30T14:03:09.928Z,1.93
2023-04-30T14:05:37.301Z,2.20
2023-04-30T14:08:04.671Z,2.17
2023-04-30T14:10:31.939Z,1.90
2023-04-30T14:15:32.300Z,2.03
2023-04-30T14:18:00.467Z,2.07
2023-04-30T14:20:27.479Z,2.00
2023-04-30T14:22:54.023Z,2.10
2023-04-30T14:25:20.962Z,1.80
2023-04-30T14:27:47.570Z,1.80
2023-04-30T14:32:45.721Z,2.00
2023-04-30T14:35:12.360Z,1.97
2023-04-30T14:37:38.890Z,2.30
2023-04-30T14:40:07.789Z,1.70
2023-04-30T14:42:34.317Z,2.60
2023-04-30T14:45:00.811Z,2.40
2023-04-30T14:47:28.184Z,1.57
2023-04-30T14:54:58.263Z,1.97
2023-04-30T14:59:57.870Z,1.77
2023-04-30T15:02:24.511Z,1.67
2023-04-30T15:04:51.199Z,2.07
2023-04-30T15:07:18.614Z,2.00
2023-04-30T15:09:46.598Z,1.93
2023-04-30T15:17:16.286Z,2.03
2023-04-30T15:19:43.440Z,1.90
2023-04-30T15:24:41.738Z,1.87
2023-04-30T15:29:40.440Z,1.90
2023-04-30T15:39:41.824Z,1.40
2023-04-30T15:42:08.413Z,2.03
2023-04-30T15:44:35.078Z,1.93
2023-04-30T15:47:01.932Z,1.70
2023-04-30T15:49:28.579Z,1.73
2023-04-30T15:51:55.112Z,1.53
2023-04-30T15:54:23.248Z,1.90
2023-04-30T15:56:51.327Z,1.60
2023-04-30T15:59:19.689Z,1.70
2023-04-30T16:01:46.580Z,1.80
2023-04-30T16:04:13.401Z,1.93
2023-04-30T16:06:40.060Z,1.60
2023-04-30T16:09:07.408Z,2.17
2023-04-30T16:14:06.640Z,1.70
2023-04-30T16:16:33.324Z,1.90
2023-04-30T16:18:59.980Z,1.87
2023-04-30T16:21:27.203Z,2.13
2023-04-30T16:28:57.409Z,2.03
2023-04-30T16:31:24.056Z,1.93
2023-04-30T16:36:22.284Z,1.73
2023-04-30T16:38:48.854Z,1.77
2023-04-30T16:48:50.867Z,1.90
2023-04-30T16:51:17.489Z,1.43
2023-04-30T16:58:47.202Z,1.60
2023-04-30T17:01:13.816Z,1.90
2023-04-30T17:03:40.443Z,1.37
2023-04-30T17:06:07.132Z,2.00
2023-04-30T17:08:33.837Z,1.70
2023-04-30T17:11:00.769Z,1.80
2023-04-30T17:18:33.622Z,1.90
2023-04-30T17:36:13.031Z,2.30
2023-04-30T17:38:39.652Z,2.40
2023-04-30T17:48:41.865Z,2.50
2023-04-30T17:53:41.166Z,2.70
2023-04-30T17:56:09.573Z,2.63
2023-04-30T17:58:39.112Z,3.40
2023-04-30T18:01:07.513Z,2.97
2023-04-30T18:03:36.113Z,3.23
2023-04-30T18:06:03.618Z,3.13
2023-04-30T18:11:05.222Z,3.20
2023-04-30T18:13:31.808Z,3.83
2023-04-30T18:15:58.522Z,3.07
2023-04-30T18:20:56.586Z,3.50
2023-04-30T18:23:23.516Z,3.27
2023-04-30T18:25:50.092Z,3.50
2023-04-30T18:28:17.213Z,4.07
2023-04-30T18:30:44.422Z,3.43
2023-04-30T18:33:11.447Z,3.43
2023-04-30T18:35:38.285Z,3.93
2023-04-30T18:38:08.084Z,4.27
2023-04-30T18:40:34.784Z,3.10
2023-04-30T18:45:33.022Z,3.50
2023-04-30T18:50:31.123Z,3.77
2023-04-30T19:00:32.588Z,3.03
2023-04-30T19:05:32.226Z,3.13
2023-04-30T19:07:58.797Z,3.90
2023-04-30T19:12:56.886Z,3.63
2023-04-30T19:15:25.536Z,3.77
2023-04-30T19:17:52.793Z,3.30
2023-04-30T19:20:19.325Z,3.53
2023-04-30T19:22:45.889Z,4.20
2023-04-30T19:25:12.590Z,3.00
2023-04-30T19:27:39.210Z,3.27
2023-04-30T19:30:06.936Z,2.80
2023-04-30T19:32:33.477Z,3.40
2023-04-30T19:35:00.279Z,3.23
2023-04-30T19:37:27.466Z,3.33
2023-04-30T19:39:54.228Z,3.43
2023-04-30T19:42:20.913Z,4.20
2023-04-30T19:44:47.436Z,3.53
2023-04-30T19:47:14.009Z,7.43
2023-04-30T19:49:40.732Z,7.73
2023-04-30T19:52:08.355Z,8.90
2023-04-30T19:54:35.123Z,9.10
2023-04-30T19:57:02.020Z,8.80
2023-04-30T19:59:28.681Z,8.67
2023-04-30T20:01:55.347Z,9.00
2023-04-30T20:04:23.004Z,7.40
2023-04-30T20:06:56.570Z,6.70
2023-04-30T20:09:23.176Z,6.20
2023-04-30T20:11:51.492Z,10.33
2023-04-30T20:14:18.703Z,11.80
2023-04-30T20:16:46.123Z,10.07
2023-04-30T20:19:13.965Z,9.67
2023-04-30T20:21:40.602Z,10.50
2023-04-30T20:24:07.124Z,8.40
2023-04-30T20:26:34.414Z,8.57
2023-04-30T20:29:01.032Z,8.07
2023-04-30T20:31:31.123Z,8.53
2023-04-30T20:33:58.033Z,8.30
2023-04-30T20:36:24.616Z,8.30
2023-04-30T20:38:54.161Z,8.00
2023-04-30T20:41:21.220Z,8.43
2023-04-30T20:43:48.117Z,7.70
2023-04-30T20:51:19.936Z,8.20
2023-04-30T21:08:55.970Z,7.87
2023-04-30T21:21:24.536Z,7.57
2023-04-30T21:31:27.846Z,7.60
2023-04-30T21:36:26.933Z,7.40
2023-04-30T21:41:25.477Z,7.47
2023-04-30T21:48:55.465Z,7.90
2023-04-30T21:51:22.601Z,7.47
2023-04-30T21:56:21.797Z,7.43
2023-04-30T21:58:48.469Z,6.37
2023-04-30T22:01:15.057Z,7.17
2023-04-30T22:03:42.401Z,6.73
2023-04-30T22:06:09.042Z,7.30
2023-04-30T22:13:39.041Z,7.27
2023-04-30T22:16:05.993Z,6.90
2023-04-30T22:18:34.038Z,7.57
2023-04-30T22:21:01.984Z,6.90
2023-04-30T22:23:28.803Z,7.63
2023-04-30T22:33:26.430Z,7.20
2023-04-30T22:35:53.007Z,7.43
2023-04-30T22:38:19.842Z,6.97
2023-04-30T22:40:46.517Z,6.67
2023-04-30T22:43:13.778Z,7.23
2023-04-30T22:45:40.582Z,6.60
2023-04-30T22:48:09.866Z,6.77
2023-04-30T22:50:36.915Z,6.20
2023-04-30T22:58:07.292Z,6.73
2023-04-30T23:00:34.017Z,6.63
2023-04-30T23:05:32.219Z,6.27
2023-04-30T23:07:58.761Z,6.10
2023-04-30T23:15:30.095Z,6.43
2023-04-30T23:17:58.002Z,6.83
2023-04-30T23:20:24.787Z,6.40
2023-04-30T23:22:51.559Z,6.90
2023-04-30T23:25:18.108Z,6.50
2023-04-30T23:32:48.269Z,6.67
2023-04-30T23:35:14.889Z,6.23
2023-04-30T23:37:41.415Z,6.00
2023-04-30T23:40:09.635Z,6.23
2023-04-30T23:42:36.252Z,5.80
2023-04-30T23:45:03.693Z,6.40
2023-04-30T23:47:30.451Z,6.47
2023-04-30T23:49:57.480Z,5.97
2023-04-30T23:52:24.251Z,6.47
2023-04-30T23:54:50.920Z,5.67
2023-04-30T23:57:17.959Z,5.73
2023-04-30T23:59:44.549Z,5.97
